Time;durP1;ratioP1;P1;durP2;ratioP2;P2;SDS_P1;SDS_P2;PMS_P1;PMS_P2;Temp;Humidity;BMP_temperature;BMP_pressure;BME280_temperature;BME280_humidity;BME280_pressure;Samples;Min_cycle;Max_cycle;Signal;HPM_P1;HPM_P2
2023/09/11 00:01:25;;;;;;;14.20;10.60;;;;;;;15.34;76.19;97430.04;104977;1254;98553;-81
2023/09/11 00:03:52;;;;;;;14.70;10.60;;;;;;;15.33;76.25;97431.81;104895;1266;99260;-81
2023/09/11 00:06:20;;;;;;;13.00;10.20;;;;;;;15.31;76.16;97428.51;105061;1257;98475;-72
2023/09/11 00:08:48;;;;;;;17.00;9.80;;;;;;;15.29;76.10;97425.75;104971;1266;102598;-72
2023/09/11 00:11:15;;;;;;;18.20;9.80;;;;;;;15.26;76.06;97423.40;105031;1258;100393;-73
2023/09/11 00:13:43;;;;;;;15.50;9.90;;;;;;;15.24;76.20;97419.38;104928;1254;99935;-72
2023/09/11 00:16:11;;;;;;;12.60;9.80;;;;;;;15.22;76.24;97415.70;104766;1262;98140;-81
2023/09/11 00:18:39;;;;;;;14.20;10.20;;;;;;;15.20;76.15;97412.73;104970;1257;98408;-81
2023/09/11 00:21:06;;;;;;;13.90;10.70;;;;;;;15.18;76.22;97410.40;104927;1258;102461;-82
2023/09/11 00:23:34;;;;;;;13.60;10.20;;;;;;;15.16;76.20;97407.75;104936;1268;100241;-82
2023/09/11 00:26:02;;;;;;;15.70;10.30;;;;;;;15.14;76.10;97404.98;104951;1259;98982;-81
2023/09/11 00:28:30;;;;;;;13.40;10.80;;;;;;;15.11;76.24;97401.45;104979;1257;98737;-72
2023/09/11 00:31:00;;;;;;;14.50;11.00;;;;;;;15.05;76.34;97398.45;104969;1258;98406;-81
2023/09/11 00:33:28;;;;;;;14.10;10.50;;;;;;;14.99;76.77;97399.17;104992;1256;103660;-81
2023/09/11 00:35:56;;;;;;;14.40;10.40;;;;;;;14.89;76.91;97394.16;105016;1257;101544;-81
2023/09/11 00:38:24;;;;;;;17.00;10.50;;;;;;;14.83;77.10;97390.57;105009;1251;97927;-81
2023/09/11 00:40:52;;;;;;;14.20;11.40;;;;;;;14.77;77.47;97388.55;104996;1257;98024;-82
2023/09/11 00:43:20;;;;;;;15.40;11.10;;;;;;;14.70;77.62;97388.94;105019;1257;98398;-81
2023/09/11 00:45:50;;;;;;;13.00;10.90;;;;;;;14.64;77.81;97390.53;104963;1254;103554;-73
2023/09/11 00:48:19;;;;;;;15.20;11.60;;;;;;;14.57;78.01;97392.05;104982;1266;101157;-72
2023/09/11 00:50:47;;;;;;;13.20;11.80;;;;;;;14.52;78.10;97388.13;104570;1261;100049;-73
2023/09/11 00:53:15;;;;;;;13.60;11.40;;;;;;;14.49;78.13;97384.42;104608;1262;98033;-73
2023/09/11 00:55:45;;;;;;;16.20;11.40;;;;;;;14.51;78.19;97384.27;105021;1256;98433;-72
2023/09/11 00:58:17;;;;;;;13.50;10.20;;;;;;;14.54;78.08;97382.86;104625;1271;102719;-72
2023/09/11 01:00:49;;;;;;;12.80;10.30;;;;;;;14.56;77.84;97382.96;104874;1270;101043;-72
2023/09/11 01:03:17;;;;;;;15.40;10.60;;;;;;;14.56;77.66;97385.84;104721;1269;99955;-81
2023/09/11 01:05:45;;;;;;;13.40;10.80;;;;;;;14.55;77.63;97384.73;104922;1257;98032;-81
2023/09/11 01:08:13;;;;;;;21.10;10.80;;;;;;;14.56;77.79;97381.33;104627;1266;99339;-81
2023/09/11 01:10:40;;;;;;;14.70;10.50;;;;;;;14.57;77.65;97379.99;105071;1257;103286;-80
2023/09/11 01:13:09;;;;;;;13.90;10.30;;;;;;;14.56;77.48;97378.29;104929;1257;111291;-81
2023/09/11 01:15:43;;;;;;;14.50;10.40;;;;;;;14.55;77.48;97376.75;104959;1257;98658;-81
2023/09/11 01:18:23;;;;;;;12.70;10.40;;;;;;;14.53;77.59;97376.58;104965;1257;97908;-81
2023/09/11 01:20:50;;;;;;;12.90;9.50;;;;;;;14.50;77.67;97377.13;105032;1254;98330;-81
2023/09/11 01:23:43;;;;;;;15.20;9.80;;;;;;;14.47;77.60;97377.21;104960;1264;103614;-81
2023/09/11 01:26:45;;;;;;;14.00;10.10;;;;;;;14.45;77.68;97374.77;104987;1257;100326;-81
2023/09/11 01:29:15;;;;;;;16.50;9.30;;;;;;;14.43;77.59;97378.36;104759;1264;99971;-81
2023/09/11 01:31:45;;;;;;;13.30;9.50;;;;;;;14.41;77.59;97376.63;104926;1260;98829;-81
2023/09/11 01:34:14;;;;;;;12.90;10.20;;;;;;;14.39;77.64;97373.75;104963;1257;98452;-81
2023/09/11 01:36:41;;;;;;;13.70;10.70;;;;;;;14.38;77.60;97371.46;105046;1275;103785;-81
2023/09/11 01:39:09;;;;;;;13.90;10.20;;;;;;;14.36;77.62;97370.09;104982;1266;100421;-81
2023/09/11 01:41:41;;;;;;;13.90;9.90;;;;;;;14.33;77.78;97368.11;104961;1258;100112;-72
2023/09/11 01:44:22;;;;;;;18.40;11.20;;;;;;;14.30;77.88;97367.23;105045;1257;99194;-81
2023/09/11 01:46:52;;;;;;;14.30;11.10;;;;;;;14.28;77.90;97366.64;105096;1254;99145;-81
2023/09/11 01:49:22;;;;;;;14.70;10.60;;;;;;;14.23;77.95;97364.41;104710;1261;103202;-81
2023/09/11 01:51:53;;;;;;;14.50;11.00;;;;;;;14.19;78.09;97361.09;104936;1257;101524;-81
2023/09/11 01:54:22;;;;;;;12.50;11.10;;;;;;;14.10;78.19;97358.45;104945;1254;109471;-80
2023/09/11 01:56:49;;;;;;;14.90;11.50;;;;;;;14.03;78.37;97360.88;104642;1273;98034;-81
2023/09/11 01:59:17;;;;;;;16.10;11.90;;;;;;;13.98;78.68;97357.30;104616;1261;98138;-81
2023/09/11 02:01:45;;;;;;;17.60;11.30;;;;;;;13.94;79.00;97359.15;104818;1257;103653;-72
2023/09/11 02:04:13;;;;;;;15.90;11.50;;;;;;;13.89;79.22;97358.09;104966;1264;108685;-72
2023/09/11 02:06:40;;;;;;;15.40;12.10;;;;;;;13.86;79.54;97362.85;104622;1257;99271;-72
2023/09/11 02:09:08;;;;;;;17.40;11.60;;;;;;;13.81;79.61;97366.09;104634;1279;99133;-72
2023/09/11 02:11:36;;;;;;;15.90;12.00;;;;;;;13.78;79.64;97360.36;104588;1257;98610;-72
2023/09/11 02:14:03;;;;;;;17.80;12.40;;;;;;;13.78;79.63;97358.19;104597;1270;103661;-72
2023/09/11 02:16:31;;;;;;;13.70;11.70;;;;;;;13.80;79.78;97358.17;104643;1261;100343;-81
2023/09/11 02:18:59;;;;;;;15.80;12.30;;;;;;;13.83;79.79;97357.23;104664;1260;99117;-82
2023/09/11 02:21:26;;;;;;;15.20;11.60;;;;;;;13.85;79.79;97357.44;104625;1258;98125;-72
2023/09/11 02:23:54;;;;;;;11.20;10.00;;;;;;;13.87;79.53;97351.81;104611;1260;98440;-72
2023/09/11 02:26:21;;;;;;;12.80;10.20;;;;;;;13.88;79.41;97349.98;104659;1260;102556;-72
2023/09/11 02:28:49;;;;;;;13.50;10.60;;;;;;;13.88;79.28;97351.50;104619;1260;100611;-72
2023/09/11 02:31:17;;;;;;;13.50;11.00;;;;;;;13.84;79.06;97356.41;104595;1261;99956;-72
2023/09/11 02:33:44;;;;;;;13.10;10.90;;;;;;;13.77;79.05;97356.48;104643;1270;98171;-74
2023/09/11 02:36:12;;;;;;;12.70;10.80;;;;;;;13.74;79.13;97360.21;104667;1258;99777;-74
2023/09/11 02:38:40;;;;;;;14.60;11.20;;;;;;;13.74;79.15;97359.29;104856;1260;103543;-72
2023/09/11 02:41:07;;;;;;;13.50;9.80;;;;;;;13.74;79.29;97361.08;104608;1271;101476;-82
2023/09/11 02:43:35;;;;;;;12.10;9.90;;;;;;;13.73;79.22;97362.42;104548;1257;98979;-81
2023/09/11 02:46:03;;;;;;;11.30;10.10;;;;;;;13.72;79.05;97359.35;104584;1261;97995;-82
2023/09/11 02:48:31;;;;;;;12.40;9.90;;;;;;;13.69;78.92;97358.93;104579;1260;98593;-80
2023/09/11 02:50:59;;;;;;;11.10;9.10;;;;;;;13.61;78.85;97354.34;104621;1259;102754;-81
2023/09/11 02:53:26;;;;;;;9.30;8.30;;;;;;;13.54;78.89;97353.44;104577;1270;101557;-81
2023/09/11 02:55:54;;;;;;;14.20;8.90;;;;;;;13.53;78.99;97355.04;104629;1273;100525;-81
2023/09/11 02:58:22;;;;;;;11.00;9.10;;;;;;;13.53;78.92;97357.70;104657;1260;98021;-72
2023/09/11 03:00:50;;;;;;;16.10;10.30;;;;;;;13.53;78.93;97358.95;104652;1276;98344;-72
2023/09/11 03:03:17;;;;;;;16.80;11.30;;;;;;;13.51;79.16;97357.83;104640;1266;102182;-72
2023/09/11 03:05:45;;;;;;;12.40;9.70;;;;;;;13.47;79.17;97359.77;104643;1261;102154;-72
2023/09/11 03:08:13;;;;;;;13.70;10.60;;;;;;;13.44;79.38;97360.71;104612;1270;99913;-73
2023/09/11 03:10:40;;;;;;;15.10;11.50;;;;;;;13.42;79.48;97358.04;104636;1261;99353;-72
2023/09/11 03:13:08;;;;;;;12.80;11.20;;;;;;;13.37;79.47;97357.61;104890;1268;97916;-72
2023/09/11 03:15:36;;;;;;;17.30;11.20;;;;;;;13.36;79.61;97355.63;105040;1257;103615;-73
2023/09/11 03:18:03;;;;;;;18.40;11.90;;;;;;;13.36;79.70;97358.76;105018;1257;101363;-81
2023/09/11 03:20:31;;;;;;;20.00;13.50;;;;;;;13.29;80.10;97359.63;104882;1256;99466;-81
2023/09/11 03:22:59;;;;;;;18.20;13.00;;;;;;;13.23;80.65;97359.30;105007;1268;97902;-82
2023/09/11 03:25:27;;;;;;;17.30;13.70;;;;;;;13.19;80.82;97356.02;104963;1254;98368;-81
2023/09/11 03:27:55;;;;;;;19.10;12.80;;;;;;;13.19;80.92;97354.77;105013;1258;102576;-81
2023/09/11 03:30:23;;;;;;;19.20;13.30;;;;;;;13.22;80.77;97356.23;105131;1257;100407;-79
2023/09/11 03:32:52;;;;;;;18.80;13.40;;;;;;;13.26;80.80;97358.48;104982;1267;99988;-72
2023/09/11 03:35:19;;;;;;;22.00;14.30;;;;;;;13.29;80.89;97358.46;104941;1257;98029;-72
2023/09/11 03:37:47;;;;;;;24.90;15.10;;;;;;;13.25;81.19;97357.94;105098;1256;98324;-82
2023/09/11 03:40:15;;;;;;;24.50;13.80;;;;;;;13.21;81.35;97359.23;104964;1260;102683;-81
2023/09/11 03:42:42;;;;;;;24.40;14.90;;;;;;;13.19;81.56;97359.17;104927;1257;101497;-80
2023/09/11 03:45:10;;;;;;;18.70;13.30;;;;;;;13.20;81.78;97361.96;105021;1257;99250;-81
2023/09/11 03:47:38;;;;;;;17.10;13.60;;;;;;;13.21;81.69;97358.79;104943;1256;97957;-80
2023/09/11 03:50:08;;;;;;;17.40;13.30;;;;;;;13.24;81.65;97358.88;104970;1254;99136;-81
2023/09/11 03:52:35;;;;;;;16.80;12.40;;;;;;;13.25;81.45;97357.58;105084;1257;103449;-81
2023/09/11 03:55:05;;;;;;;20.90;14.40;;;;;;;13.26;81.29;97355.22;104961;1257;99989;-80
2023/09/11 03:57:32;;;;;;;21.70;15.20;;;;;;;13.28;81.23;97355.63;105091;1257;99251;-73
2023/09/11 04:00:00;;;;;;;19.60;14.40;;;;;;;13.31;81.15;97357.13;104940;1254;97913;-84
2023/09/11 04:02:28;;;;;;;19.60;15.40;;;;;;;13.31;81.17;97357.06;104970;1276;98322;-75
2023/09/11 04:04:55;;;;;;;18.10;14.20;;;;;;;13.31;81.24;97357.13;104914;1273;102615;-76
2023/09/11 04:07:23;;;;;;;20.80;14.80;;;;;;;13.34;81.05;97359.98;105068;1258;101524;-75
2023/09/11 04:09:51;;;;;;;20.50;14.40;;;;;;;13.35;80.99;97359.89;104946;1256;99979;-76
2023/09/11 04:12:18;;;;;;;17.90;13.70;;;;;;;13.33;80.93;97358.11;105005;1257;98730;-75
2023/09/11 04:14:46;;;;;;;23.00;15.80;;;;;;;13.26;80.97;97359.59;104710;1259;97914;-83
2023/09/11 04:17:14;;;;;;;28.50;19.70;;;;;;;13.23;81.16;97356.67;104659;1260;102679;-83
2023/09/11 04:19:41;;;;;;;24.10;18.00;;;;;;;13.19;81.26;97354.46;104748;1259;100408;-84
2023/09/11 04:22:10;;;;;;;20.50;15.00;;;;;;;13.16;81.46;97355.14;104645;1270;100088;-83
2023/09/11 04:24:38;;;;;;;18.90;15.50;;;;;;;13.16;81.68;97350.53;104647;1261;98229;-83
2023/09/11 04:27:06;;;;;;;18.30;14.60;;;;;;;13.16;81.81;97349.55;104773;1259;98409;-83
2023/09/11 04:29:34;;;;;;;22.00;15.80;;;;;;;13.14;82.00;97344.99;104652;1273;103613;-83
2023/09/11 04:32:02;;;;;;;19.60;17.00;;;;;;;13.12;82.03;97344.48;104687;1269;101701;-76
2023/09/11 04:34:29;;;;;;;22.80;17.90;;;;;;;13.15;82.00;97346.33;104566;1262;100192;-75
2023/09/11 04:36:57;;;;;;;24.10;18.20;;;;;;;13.18;82.09;97347.69;104668;1257;98109;-76
2023/09/11 04:39:25;;;;;;;22.00;18.90;;;;;;;13.18;82.14;97341.48;104653;1259;99132;-76
2023/09/11 04:41:52;;;;;;;21.40;18.70;;;;;;;13.21;82.26;97341.48;104621;1260;102321;-76
2023/09/11 04:44:20;;;;;;;24.00;18.30;;;;;;;13.24;82.12;97339.91;104770;1260;102789;-76
2023/09/11 04:46:48;;;;;;;26.90;19.60;;;;;;;13.27;82.02;97336.36;104962;1257;99949;-76
2023/09/11 04:49:15;;;;;;;28.50;19.80;;;;;;;13.28;82.23;97335.08;105000;1256;97915;-76
2023/09/11 04:51:43;;;;;;;23.30;18.70;;;;;;;13.26;82.57;97332.83;105004;1268;98405;-76
2023/09/11 04:54:11;;;;;;;22.30;18.90;;;;;;;13.25;82.82;97336.27;104972;1256;103215;-76
2023/09/11 04:56:38;;;;;;;22.70;18.90;;;;;;;13.22;83.08;97338.88;104944;1257;100387;-76
2023/09/11 04:59:06;;;;;;;19.20;17.00;;;;;;;13.19;83.25;97337.42;104976;1257;99509;-76
2023/09/11 05:01:34;;;;;;;19.70;16.30;;;;;;;13.18;83.39;97338.42;104987;1260;97918;-76
2023/09/11 05:04:04;;;;;;;20.30;15.20;;;;;;;13.18;83.50;97335.38;105018;1254;98393;-76
2023/09/11 05:06:31;;;;;;;19.20;14.20;;;;;;;13.15;83.99;97334.30;105046;1257;103775;-76
2023/09/11 05:09:00;;;;;;;22.50;15.30;;;;;;;13.13;84.70;97332.65;104949;1257;100359;-76
2023/09/11 05:11:28;;;;;;;23.10;15.90;;;;;;;13.13;84.60;97332.69;104467;1276;101609;-76
2023/09/11 05:13:55;;;;;;;20.80;15.90;;;;;;;13.15;84.43;97331.52;104937;1256;97883;-82
2023/09/11 05:16:23;;;;;;;20.60;15.60;;;;;;;13.20;84.21;97335.83;104965;1255;98750;-81
2023/09/11 05:18:51;;;;;;;21.30;14.50;;;;;;;13.25;84.32;97334.42;104980;1269;104004;-82
2023/09/11 05:21:18;;;;;;;20.50;15.10;;;;;;;13.29;84.53;97330.60;105012;1270;101360;-83
2023/09/11 05:23:46;;;;;;;18.50;15.20;;;;;;;13.31;84.66;97327.73;104947;1257;100184;-82
2023/09/11 05:26:14;;;;;;;21.10;15.00;;;;;;;13.35;84.69;97328.11;104979;1255;98001;-83
2023/09/11 05:28:41;;;;;;;18.70;14.00;;;;;;;13.40;84.42;97331.12;105018;1253;98463;-83
2023/09/11 05:31:10;;;;;;;16.90;13.20;;;;;;;13.47;84.39;97327.10;105051;1257;102656;-82
2023/09/11 05:33:38;;;;;;;20.10;13.80;;;;;;;13.53;84.32;97332.55;104747;1261;100682;-83
2023/09/11 05:36:06;;;;;;;19.00;13.00;;;;;;;13.61;84.45;97333.02;105031;1254;99387;-83
2023/09/11 05:38:34;;;;;;;16.80;14.00;;;;;;;13.69;84.48;97330.14;105038;1257;99209;-84
2023/09/11 05:41:01;;;;;;;19.30;14.70;;;;;;;13.76;84.42;97328.73;104993;1268;97847;-83
2023/09/11 05:43:29;;;;;;;21.00;14.70;;;;;;;13.83;84.30;97327.88;104969;1257;103576;-82
2023/09/11 05:45:57;;;;;;;28.80;17.50;;;;;;;13.89;84.25;97321.79;105124;1257;100317;-76
2023/09/11 05:48:25;;;;;;;25.50;18.40;;;;;;;13.96;84.39;97327.44;105018;1257;99494;-76
2023/09/11 05:50:53;;;;;;;23.10;16.70;;;;;;;14.03;84.40;97327.13;104983;1257;97899;-83
2023/09/11 05:53:20;;;;;;;23.10;16.90;;;;;;;14.10;84.36;97324.08;104966;1256;97870;-77
2023/09/11 05:55:49;;;;;;;20.00;16.60;;;;;;;14.17;84.46;97328.33;105042;1254;103468;-77
2023/09/11 05:58:17;;;;;;;19.70;16.60;;;;;;;14.25;84.66;97323.55;104660;1257;100427;-77
2023/09/11 06:00:44;;;;;;;21.10;15.90;;;;;;;14.32;84.70;97321.45;105001;1275;98985;-76
2023/09/11 06:03:12;;;;;;;21.50;16.20;;;;;;;14.41;84.67;97313.52;105090;1253;99207;-77
2023/09/11 06:05:40;;;;;;;19.60;16.90;;;;;;;14.48;84.78;97314.00;104974;1256;98340;-76
2023/09/11 06:08:08;;;;;;;25.70;17.50;;;;;;;14.55;84.87;97315.20;104860;1256;120160;-76
2023/09/11 06:10:36;;;;;;;21.80;17.10;;;;;;;14.63;84.92;97313.52;104893;1262;101552;-76
2023/09/11 06:13:04;;;;;;;19.60;16.20;;;;;;;14.72;85.07;97313.92;104968;1261;98589;-76
2023/09/11 06:15:32;;;;;;;21.60;16.80;;;;;;;14.82;85.21;97315.23;104938;1257;98007;-83
2023/09/11 06:17:59;;;;;;;20.00;15.50;;;;;;;14.90;85.10;97311.20;105032;1270;98401;-83
2023/09/11 06:20:27;;;;;;;25.20;16.70;;;;;;;14.99;85.42;97309.15;105034;1257;102030;-84
2023/09/11 06:22:55;;;;;;;18.00;15.10;;;;;;;15.09;85.58;97311.25;104850;1260;101337;-83
2023/09/11 06:25:23;;;;;;;18.10;14.70;;;;;;;15.18;85.68;97308.13;104893;1260;99152;-82
2023/09/11 06:27:51;;;;;;;17.80;15.60;;;;;;;15.29;85.80;97308.42;104766;1278;98095;-82
2023/09/11 06:30:19;;;;;;;16.90;14.70;;;;;;;15.39;85.97;97309.98;104934;1258;98437;-76
2023/09/11 06:32:47;;;;;;;21.70;16.00;;;;;;;15.51;86.16;97310.86;104843;1258;103580;-76
2023/09/11 06:35:14;;;;;;;19.50;16.10;;;;;;;15.63;86.16;97309.02;104827;1255;100118;-77
2023/09/11 06:37:42;;;;;;;18.50;16.10;;;;;;;15.75;86.45;97304.33;104804;1254;99989;-76
2023/09/11 06:40:11;;;;;;;19.60;16.00;;;;;;;15.89;86.67;97299.11;104856;1260;98088;-76
2023/09/11 06:42:39;;;;;;;21.40;16.30;;;;;;;16.03;86.73;97295.52;104834;1259;98324;-76
2023/09/11 06:45:07;;;;;;;18.20;15.50;;;;;;;16.16;86.71;97295.45;104825;1255;102537;-76
2023/09/11 06:47:35;;;;;;;17.20;15.20;;;;;;;16.30;86.69;97297.90;104811;1254;108897;-76
2023/09/11 06:50:03;;;;;;;17.50;14.00;;;;;;;16.42;86.77;97294.85;104694;1260;99074;-83
2023/09/11 06:52:32;;;;;;;15.90;14.10;;;;;;;16.55;86.73;97292.30;104643;1262;98975;-82
2023/09/11 06:55:00;;;;;;;17.50;14.40;;;;;;;16.67;86.78;97292.00;104246;1268;98433;-82
2023/09/11 06:57:27;;;;;;;16.20;13.70;;;;;;;16.79;86.70;97294.74;104490;1263;102640;-82
2023/09/11 06:59:55;;;;;;;14.90;13.30;;;;;;;16.91;86.47;97292.80;104515;1263;101223;-83
2023/09/11 07:02:23;;;;;;;13.60;12.20;;;;;;;17.03;86.28;97292.61;104516;1262;99941;-83
2023/09/11 07:04:50;;;;;;;17.20;12.40;;;;;;;17.15;86.19;97292.30;104493;1258;97994;-83
2023/09/11 07:07:18;;;;;;;14.70;12.20;;;;;;;17.28;86.07;97292.45;104506;1263;98847;-83
2023/09/11 07:09:47;;;;;;;15.20;11.80;;;;;;;17.40;86.03;97292.70;104566;1259;103835;-82
2023/09/11 07:12:21;;;;;;;12.30;11.10;;;;;;;17.55;85.96;97293.39;104629;1267;100396;-83
2023/09/11 07:14:49;;;;;;;13.30;11.40;;;;;;;17.71;85.58;97291.38;104505;1263;99293;-82
2023/09/11 07:17:16;;;;;;;13.50;10.80;;;;;;;17.86;85.23;97288.02;104562;1258;99118;-86
2023/09/11 07:19:47;;;;;;;16.10;11.30;;;;;;;18.03;84.97;97283.99;104637;1262;97933;-85
2023/09/11 07:22:15;;;;;;;14.20;12.20;;;;;;;18.20;84.98;97287.67;104589;1262;104696;-87
2023/09/11 07:24:42;;;;;;;12.20;10.60;;;;;;;18.36;84.78;97287.67;104722;1260;101300;-88
2023/09/11 07:27:10;;;;;;;13.40;10.10;;;;;;;18.52;84.60;97283.23;104677;1260;99547;-79
2023/09/11 07:29:38;;;;;;;13.70;10.40;;;;;;;18.73;84.29;97283.87;104691;1270;99227;-82
2023/09/11 07:32:06;;;;;;;13.30;10.90;;;;;;;19.00;84.11;97278.13;104807;1259;99306;-83
2023/09/11 07:34:34;;;;;;;11.20;9.50;;;;;;;19.36;83.90;97274.02;104962;1254;102827;-83
2023/09/11 07:37:03;;;;;;;11.30;9.30;;;;;;;19.79;83.50;97270.42;105082;1254;101317;-83
2023/09/11 07:39:30;;;;;;;11.90;9.50;;;;;;;20.25;83.14;97270.52;105997;1254;98322;-83
2023/09/11 07:41:59;;;;;;;9.50;8.60;;;;;;;20.73;82.11;97262.58;105038;1256;98727;-83
2023/09/11 07:44:26;;;;;;;12.40;9.40;;;;;;;21.21;81.00;97261.02;104786;1259;101275;-82
2023/09/11 07:46:54;;;;;;;13.30;8.90;;;;;;;21.69;80.05;97262.97;104765;1260;102542;-82
2023/09/11 07:49:22;;;;;;;11.20;8.10;;;;;;;22.12;78.39;97257.53;104782;1263;99941;-83
2023/09/11 07:51:49;;;;;;;12.50;9.00;;;;;;;22.52;77.27;97253.45;104591;1260;98927;-83
2023/09/11 07:54:17;;;;;;;11.20;9.00;;;;;;;22.96;76.43;97254.06;104599;1263;99437;-82
2023/09/11 07:56:45;;;;;;;11.00;8.30;;;;;;;23.28;75.46;97251.89;104767;1259;98018;-83
2023/09/11 07:59:12;;;;;;;9.90;8.00;;;;;;;23.61;74.01;97250.44;104823;1260;102152;-82
2023/09/11 08:01:40;;;;;;;12.60;8.30;;;;;;;23.93;72.27;97245.90;104674;1257;100398;-76
2023/09/11 08:04:07;;;;;;;9.20;7.70;;;;;;;24.26;72.59;97242.77;104649;1261;98304;-76
2023/09/11 08:06:35;;;;;;;10.50;7.80;;;;;;;24.62;71.72;97237.46;104805;1260;97999;-83
2023/09/11 08:09:04;;;;;;;9.40;7.70;;;;;;;24.95;70.66;97234.23;104786;1278;98536;-83
2023/09/11 08:11:34;;;;;;;10.90;7.20;;;;;;;25.26;69.55;97230.27;104501;1263;103706;-82
2023/09/11 08:14:02;;;;;;;12.20;7.60;;;;;;;25.60;68.72;97227.07;104295;1268;100607;-83
2023/09/11 08:16:30;;;;;;;8.20;7.20;;;;;;;25.94;67.04;97227.75;104527;1275;98982;-83
2023/09/11 08:18:57;;;;;;;7.70;6.90;;;;;;;26.23;66.35;97227.08;104492;1258;98019;-83
2023/09/11 08:21:25;;;;;;;9.90;7.50;;;;;;;26.55;65.21;97228.85;104751;1257;99353;-83
2023/09/11 08:23:53;;;;;;;8.80;6.80;;;;;;;26.88;63.69;97229.64;104637;1267;103549;-85
2023/09/11 08:26:21;;;;;;;7.80;7.00;;;;;;;27.20;63.09;97232.72;104663;1259;100301;-77
2023/09/11 08:28:48;;;;;;;9.50;6.80;;;;;;;27.50;62.43;97228.20;104783;1270;99753;-85
2023/09/11 08:31:16;;;;;;;10.90;7.10;;;;;;;27.77;61.57;97225.30;104686;1257;98936;-83
2023/09/11 08:33:44;;;;;;;12.40;7.50;;;;;;;28.01;60.65;97223.69;104686;1260;98412;-83
2023/09/11 08:36:11;;;;;;;8.90;7.20;;;;;;;28.28;60.13;97224.27;104690;1260;103468;-82
2023/09/11 08:38:41;;;;;;;8.40;6.50;;;;;;;28.50;57.20;97223.63;104646;1260;100103;-82
2023/09/11 08:41:10;;;;;;;10.10;6.50;;;;;;;28.67;56.18;97220.89;104724;1260;99958;-82
2023/09/11 08:43:39;;;;;;;8.60;6.20;;;;;;;28.83;55.79;97221.02;104736;1259;97926;-83
2023/09/11 08:46:10;;;;;;;8.50;6.00;;;;;;;28.97;54.69;97219.38;104772;1259;98350;-75
2023/09/11 08:48:41;;;;;;;12.90;6.40;;;;;;;29.07;53.43;97215.47;104695;1258;103523;-75
2023/09/11 08:51:16;;;;;;;11.10;6.20;;;;;;;29.16;52.55;97214.73;105077;1256;101809;-76
2023/09/11 08:53:46;;;;;;;7.70;5.90;;;;;;;29.23;51.45;97218.99;105062;1267;100068;-75
2023/09/11 08:56:14;;;;;;;11.10;6.10;;;;;;;29.29;50.58;97219.79;104978;1256;97908;-74
2023/09/11 08:58:42;;;;;;;7.10;5.60;;;;;;;29.35;49.98;97217.55;104979;1254;98351;-75
2023/09/11 09:01:11;;;;;;;8.50;5.90;;;;;;;29.42;49.61;97216.59;105027;1270;103637;-82
2023/09/11 09:03:40;;;;;;;7.10;6.20;;;;;;;29.48;49.35;97217.39;104764;1254;101456;-82
2023/09/11 09:06:08;;;;;;;7.10;5.70;;;;;;;29.55;48.83;97216.73;104650;1263;99022;-84
2023/09/11 09:08:37;;;;;;;6.10;5.50;;;;;;;29.61;48.20;97216.44;104857;1259;98005;-83
2023/09/11 09:11:06;;;;;;;7.10;5.80;;;;;;;29.65;48.24;97212.58;104805;1259;99234;-83
2023/09/11 09:13:35;;;;;;;6.30;5.70;;;;;;;29.70;47.72;97210.69;104944;1268;102687;-81
2023/09/11 09:16:03;;;;;;;9.40;5.90;;;;;;;29.77;47.29;97207.73;104654;1262;100362;-74
2023/09/11 09:18:31;;;;;;;8.50;5.30;;;;;;;29.85;46.95;97207.34;104599;1263;99135;-75
2023/09/11 09:21:00;;;;;;;8.10;5.60;;;;;;;29.94;46.55;97202.03;104929;1258;97999;-75
2023/09/11 09:23:39;;;;;;;12.10;5.90;;;;;;;29.99;45.87;97196.98;104847;1259;98427;-76
2023/09/11 09:26:09;;;;;;;6.40;5.80;;;;;;;30.06;45.60;97192.49;104622;1261;102621;-81
2023/09/11 09:28:47;;;;;;;8.50;6.40;;;;;;;30.15;46.05;97193.91;104548;1257;102549;-80
2023/09/11 09:31:33;;;;;;;12.90;6.40;;;;;;;30.29;46.12;97187.96;104667;1260;100165;-82
2023/09/11 09:34:00;;;;;;;8.70;6.30;;;;;;;30.38;45.69;97185.77;104566;1260;97991;-85
2023/09/11 09:36:28;;;;;;;8.70;6.30;;;;;;;30.48;45.00;97186.61;104633;1257;99678;-84
2023/09/11 09:38:57;;;;;;;8.10;6.80;;;;;;;30.56;45.06;97182.64;104603;1260;103459;-85
2023/09/11 09:41:25;;;;;;;10.30;6.60;;;;;;;30.66;44.81;97181.07;104715;1259;100859;-83
2023/09/11 09:43:54;;;;;;;8.50;6.30;;;;;;;30.73;44.34;97179.64;104635;1262;98596;-74
2023/09/11 09:46:23;;;;;;;8.60;6.20;;;;;;;30.78;43.88;97180.19;104646;1257;98078;-81
2023/09/11 09:48:51;;;;;;;7.20;6.10;;;;;;;30.83;43.93;97181.30;104440;1265;98712;-82
2023/09/11 09:51:20;;;;;;;7.20;6.00;;;;;;;30.90;43.46;97176.83;104364;1265;103704;-81
2023/09/11 09:53:54;;;;;;;9.90;6.10;;;;;;;30.99;43.65;97170.44;104494;1264;99005;-82
2023/09/11 09:56:22;;;;;;;8.50;5.50;;;;;;;31.06;42.60;97169.80;104212;1271;99509;-83
2023/09/11 09:58:50;;;;;;;7.10;5.50;;;;;;;31.09;41.49;97166.09;104266;1265;98108;-84
2023/09/11 10:01:20;;;;;;;9.20;5.50;;;;;;;31.11;41.97;97166.65;104495;1266;98492;-82
2023/09/11 10:03:50;;;;;;;9.30;5.60;;;;;;;31.12;41.56;97165.98;108038;1260;102663;-84
2023/09/11 10:06:21;;;;;;;6.40;5.70;;;;;;;31.18;41.56;97163.44;108126;1259;100352;-82
2023/09/11 10:09:08;;;;;;;10.50;5.80;;;;;;;31.25;41.26;97162.92;106601;1260;98647;-83
2023/09/11 10:11:37;;;;;;;7.20;5.60;;;;;;;31.30;40.95;97163.61;104442;1260;98175;-83
2023/09/11 10:14:07;;;;;;;4.80;4.40;;;;;;;31.35;40.75;97160.77;104295;1264;98493;-83
2023/09/11 10:16:36;;;;;;;8.10;5.30;;;;;;;31.43;40.46;97159.27;104135;1278;103642;-84
2023/09/11 10:19:04;;;;;;;6.40;5.40;;;;;;;31.53;40.40;97160.90;104243;1268;101684;-82
2023/09/11 10:21:34;;;;;;;6.70;5.70;;;;;;;31.61;40.45;97157.80;104427;1265;100169;-84
2023/09/11 10:24:02;;;;;;;10.10;5.80;;;;;;;31.64;40.14;97154.33;104344;1262;99374;-83
2023/09/11 10:26:45;;;;;;;6.10;5.50;;;;;;;31.61;39.75;97151.60;104364;1265;98441;-82
2023/09/11 10:29:22;;;;;;;9.50;5.70;;;;;;;31.57;40.53;97149.71;104642;1280;103305;-82
2023/09/11 10:32:05;;;;;;;7.60;5.70;;;;;;;31.57;40.57;97148.41;104605;1262;101257;-83
2023/09/11 10:34:33;;;;;;;7.00;6.10;;;;;;;31.52;39.88;97149.66;104560;1260;99129;-82
2023/09/11 10:37:01;;;;;;;7.60;6.10;;;;;;;31.49;40.05;97146.38;104579;1257;98102;-81
2023/09/11 10:39:30;;;;;;;7.90;6.00;;;;;;;31.44;39.54;97141.14;104581;1262;98433;-81
2023/09/11 10:41:58;;;;;;;10.00;5.60;;;;;;;31.39;40.15;97142.17;104542;1261;103585;-82
2023/09/11 10:44:30;;;;;;;7.80;5.70;;;;;;;31.44;40.79;97139.27;104582;1259;101541;-82
2023/09/11 10:47:03;;;;;;;7.50;5.90;;;;;;;31.48;40.07;97139.49;104564;1257;100169;-83
2023/09/11 10:49:37;;;;;;;9.20;5.90;;;;;;;31.42;39.37;97138.03;104486;1265;98210;-82
2023/09/11 10:52:07;;;;;;;11.20;6.20;;;;;;;31.37;39.54;97134.54;104791;1262;98366;-82
2023/09/11 10:54:36;;;;;;;7.90;5.30;;;;;;;31.36;39.34;97134.84;104984;1257;103480;-82
2023/09/11 10:57:05;;;;;;;6.70;6.10;;;;;;;31.31;39.03;97131.17;104708;1261;101179;-82
2023/09/11 10:59:34;;;;;;;7.50;6.20;;;;;;;31.27;39.03;97130.23;105038;1257;98724;-78
2023/09/11 11:02:03;;;;;;;7.20;6.40;;;;;;;31.25;39.12;97127.62;105015;1257;98936;-77
2023/09/11 11:04:35;;;;;;;9.70;5.80;;;;;;;31.21;39.54;97125.36;104639;1264;98049;-77
2023/09/11 11:07:03;;;;;;;7.30;5.70;;;;;;;31.18;39.43;97125.84;104679;1270;102175;-77
2023/09/11 11:09:33;;;;;;;10.80;6.10;;;;;;;31.17;39.67;97126.58;105065;1256;100135;-77
2023/09/11 11:12:13;;;;;;;10.90;5.60;;;;;;;31.17;39.99;97129.70;104606;1254;99712;-77
2023/09/11 11:14:40;;;;;;;7.40;5.40;;;;;;;31.08;39.53;97131.02;105054;1256;98005;-77
2023/09/11 11:17:11;;;;;;;8.80;5.50;;;;;;;31.01;38.91;97128.54;104980;1260;99193;-81
2023/09/11 11:19:41;;;;;;;8.80;5.70;;;;;;;30.93;38.85;97127.11;105079;1256;102714;-76